createdAt,value
2022-10-24T00:07:17.647Z,40.70
2022-10-24T00:17:21.162Z,39.60
2022-10-24T00:27:24.817Z,39.00
2022-10-24T00:37:28.174Z,38.20
2022-10-24T00:47:31.926Z,35.70
2022-10-24T00:57:40.293Z,37.00
2022-10-24T01:07:43.332Z,33.90
2022-10-24T01:17:49.897Z,33.70
2022-10-24T01:27:59.927Z,32.50
2022-10-24T01:38:02.844Z,29.70
2022-10-24T01:48:11.712Z,33.10
2022-10-24T01:58:15.162Z,30.20
2022-10-24T02:08:24.007Z,30.50
2022-10-24T02:18:27.984Z,31.60
2022-10-24T02:28:33.699Z,30.90
2022-10-24T02:38:39.013Z,29.20
2022-10-24T02:48:43.767Z,26.40
2022-10-24T02:58:47.191Z,24.40
2022-10-24T03:08:50.726Z,21.10
2022-10-24T03:18:54.821Z,15.60
2022-10-24T03:28:58.456Z,14.40
2022-10-24T03:39:02.863Z,13.80
2022-10-24T03:49:06.532Z,11.50
2022-10-24T03:59:10.477Z,10.40
2022-10-24T04:19:17.805Z,8.60
2022-10-24T04:29:21.316Z,8.10
2022-10-24T04:39:24.849Z,7.40
2022-10-24T04:49:28.866Z,7.20
2022-10-24T04:59:31.892Z,6.90
2022-10-24T05:09:35.616Z,7.00
2022-10-24T05:19:39.497Z,8.80
2022-10-24T05:29:43.139Z,7.90
2022-10-24T05:39:46.856Z,7.30
2022-10-24T05:49:49.940Z,6.80
2022-10-24T05:59:53.132Z,7.90
2022-10-24T06:09:57.178Z,6.30
2022-10-24T06:20:00.863Z,7.60
2022-10-24T06:30:06.767Z,7.00
2022-10-24T06:40:11.097Z,5.80
2022-10-24T06:50:14.676Z,7.70
2022-10-24T07:00:18.888Z,7.20
2022-10-24T07:10:21.846Z,7.90
2022-10-24T07:20:25.479Z,8.00
2022-10-24T07:30:29.221Z,7.70
2022-10-24T07:40:32.697Z,7.50
2022-10-24T07:50:41.271Z,6.60
2022-10-24T08:00:45.572Z,6.90
2022-10-24T08:10:50.184Z,7.70
2022-10-24T08:21:05.718Z,6.50
2022-10-24T08:31:12.555Z,6.20
2022-10-24T08:41:20.167Z,6.30
2022-10-24T08:51:41.943Z,6.90
2022-10-24T09:01:47.849Z,7.60
2022-10-24T09:11:50.942Z,5.90
2022-10-24T09:21:57.654Z,6.40
2022-10-24T09:32:02.969Z,5.40
2022-10-24T09:42:11.126Z,6.00
2022-10-24T09:52:16.238Z,4.90
2022-10-24T10:02:24.247Z,5.20
2022-10-24T10:12:34.167Z,5.80
2022-10-24T10:22:38.716Z,5.60
2022-10-24T10:32:47.330Z,4.60
2022-10-24T10:52:59.874Z,4.30
2022-10-24T11:03:11.859Z,4.50
2022-10-24T11:13:17.534Z,4.30
2022-10-24T11:23:23.695Z,4.20
2022-10-24T11:33:32.689Z,3.70
2022-10-24T11:43:37.661Z,5.00
2022-10-24T11:53:48.019Z,6.40
2022-10-24T12:04:08.218Z,3.70
2022-10-24T12:14:36.455Z,3.60
2022-10-24T12:24:41.084Z,4.40
2022-10-24T12:34:49.220Z,3.50
2022-10-24T12:45:31.696Z,4.00
2022-10-24T12:56:11.654Z,4.90
2022-10-24T13:06:25.098Z,4.70
2022-10-24T13:16:30.700Z,5.10
2022-10-24T13:26:37.365Z,4.50
2022-10-24T13:36:42.810Z,4.90
2022-10-24T13:46:50.372Z,4.90
2022-10-24T14:07:02.050Z,4.90
2022-10-24T14:17:08.355Z,5.00
2022-10-24T14:27:12.920Z,5.80
2022-10-24T14:37:19.826Z,4.90
2022-10-24T14:47:27.690Z,6.00
2022-10-24T14:57:30.647Z,6.40
2022-10-24T15:07:33.865Z,6.50
2022-10-24T15:17:39.882Z,10.50
2022-10-24T15:27:45.975Z,8.90
2022-10-24T15:37:53.658Z,9.90
2022-10-24T15:47:57.335Z,9.00
2022-10-24T15:58:01.597Z,18.20
2022-10-24T16:08:06.464Z,13.50
2022-10-24T16:18:11.926Z,14.30
2022-10-24T16:28:17.640Z,13.10
2022-10-24T16:38:21.576Z,17.40
2022-10-24T16:48:25.874Z,19.40
2022-10-24T16:58:29.907Z,17.60
2022-10-24T17:08:35.040Z,17.40
2022-10-24T17:18:39.090Z,18.40
2022-10-24T17:28:44.541Z,16.40
2022-10-24T17:38:47.504Z,16.90
2022-10-24T17:48:50.687Z,14.90
2022-10-24T17:58:54.883Z,16.30
2022-10-24T18:08:58.265Z,15.00
2022-10-24T18:19:01.484Z,12.80
2022-10-24T18:29:05.210Z,15.10
2022-10-24T18:39:08.875Z,13.80
2022-10-24T18:49:13.894Z,18.30
2022-10-24T18:59:16.406Z,15.90
2022-10-24T19:09:20.849Z,14.80
2022-10-24T19:19:25.422Z,15.00
2022-10-24T19:29:29.010Z,16.00
2022-10-24T19:39:33.953Z,16.60
2022-10-24T19:49:37.891Z,16.90
2022-10-24T19:59:41.585Z,14.60
2022-10-24T20:09:45.207Z,15.90
2022-10-24T20:19:48.901Z,14.20
2022-10-24T20:29:52.909Z,15.10
2022-10-24T20:39:56.460Z,14.90
2022-10-24T20:50:00.409Z,14.50
2022-10-24T21:00:04.082Z,15.10
2022-10-24T21:10:07.100Z,14.70
2022-10-24T21:20:11.625Z,15.90
2022-10-24T21:30:16.493Z,18.20
2022-10-24T21:40:20.150Z,17.30
2022-10-24T21:50:24.131Z,16.00
2022-10-24T22:00:27.602Z,20.10
2022-10-24T22:10:31.097Z,14.50
2022-10-24T22:20:34.746Z,13.70
2022-10-24T22:30:37.241Z,15.30
2022-10-24T22:40:41.928Z,14.90
2022-10-24T22:50:50.939Z,17.40
2022-10-24T23:10:58.044Z,17.60
2022-10-24T23:21:04.753Z,17.90
2022-10-24T23:31:08.314Z,18.30
2022-10-24T23:41:12.686Z,18.00
2022-10-24T23:51:17.674Z,18.00
